Time;durP1;ratioP1;P1;durP2;ratioP2;P2;SDS_P1;SDS_P2;PMS_P1;PMS_P2;Temp;Humidity;BMP_temperature;BMP_pressure;BME280_temperature;BME280_humidity;BME280_pressure;Samples;Min_cycle;Max_cycle;Signal;HPM_P1;HPM_P2
2022/11/04 00:00:36;;;;;;;105.90;48.00;;;;;;;;;;6311189;22;20014;-96
2022/11/04 00:03:05;;;;;;;93.13;44.92;;;;;;;;;;6285341;22;20053;-96
2022/11/04 00:05:39;;;;;;;105.40;48.25;;;;;;;;;;6259238;22;20141;-96
2022/11/04 00:08:23;;;;;;;99.00;46.95;;;;;;;;;;6285226;22;20003;-96
2022/11/04 00:14:02;;;;;;;;;;;;;;;;;;6287281;22;20380;-96
2022/11/04 00:19:16;;;;;;;94.47;43.97;;;;;;;;;;6283302;22;20043;-96
2022/11/04 00:30:03;;;;;;;93.03;42.33;;;;;;;;;;6281298;22;20066;-96
2022/11/04 00:35:21;;;;;;;82.18;40.92;;;;;;;;;;6281451;22;20058;-96
2022/11/04 00:37:48;;;;;;;88.10;38.92;;;;;;;;;;6254385;22;20008;-96
2022/11/04 00:40:15;;;;;;;74.88;37.80;;;;;;;;;;6280111;22;20007;-96
2022/11/04 00:42:45;;;;;;;78.95;38.72;;;;;;;;;;6278723;22;20011;-96
2022/11/04 00:45:14;;;;;;;74.40;38.55;;;;;;;;;;6285527;22;19999;-96
2022/11/04 00:47:46;;;;;;;78.80;38.42;;;;;;;;;;6284185;22;20383;-96
2022/11/04 00:50:15;;;;;;;71.18;35.33;;;;;;;;;;6285853;22;20011;-96
2022/11/04 00:52:44;;;;;;;75.70;37.30;;;;;;;;;;6286163;22;20010;-96
2022/11/04 00:55:11;;;;;;;72.55;37.47;;;;;;;;;;6284913;22;20061;-96
2022/11/04 00:57:40;;;;;;;75.35;36.22;;;;;;;;;;6258244;22;20007;-95
2022/11/04 01:00:07;;;;;;;74.93;37.03;;;;;;;;;;6285121;22;20432;-96
2022/11/04 01:02:33;;;;;;;68.18;37.03;;;;;;;;;;6287322;22;20011;-96
2022/11/04 01:05:02;;;;;;;66.28;34.20;;;;;;;;;;6258482;22;20034;-96
2022/11/04 01:07:31;;;;;;;68.25;33.78;;;;;;;;;;6284021;22;20335;-96
2022/11/04 01:09:57;;;;;;;64.38;35.50;;;;;;;;;;6284680;22;20011;-95
2022/11/04 01:12:23;;;;;;;63.15;34.53;;;;;;;;;;6284268;22;20030;-96
2022/11/04 01:14:49;;;;;;;65.18;35.53;;;;;;;;;;6288040;22;20339;-96
2022/11/04 01:17:19;;;;;;;66.13;35.08;;;;;;;;;;6287132;22;20003;-96
2022/11/04 01:19:47;;;;;;;62.13;34.53;;;;;;;;;;6283704;22;20003;-96
2022/11/04 01:22:16;;;;;;;60.33;32.17;;;;;;;;;;6259094;22;20027;-96
2022/11/04 01:25:01;;;;;;;;;;;;;;;;;;;;;
2022/11/04 01:27:28;;;;;;;66.82;34.80;;;;;;;;;;6317953;22;20046;-96
2022/11/04 01:29:54;;;;;;;59.72;34.03;;;;;;;;;;6290937;22;20455;-96
2022/11/04 01:32:21;;;;;;;67.60;36.97;;;;;;;;;;6287383;22;20010;-96
2022/11/04 01:34:47;;;;;;;61.65;35.70;;;;;;;;;;6291215;22;20010;-96
2022/11/04 01:37:13;;;;;;;60.22;35.03;;;;;;;;;;6291684;22;20078;-96
2022/11/04 01:39:39;;;;;;;63.05;34.10;;;;;;;;;;6292079;22;20007;-96
2022/11/04 01:42:05;;;;;;;57.50;33.78;;;;;;;;;;6285933;22;19999;-96
2022/11/04 01:45:01;;;;;;;55.35;32.55;;;;;;;;;;6285468;22;20417;-96
2022/11/04 01:47:27;;;;;;;55.50;32.92;;;;;;;;;;6258893;22;20007;-96
2022/11/04 01:49:56;;;;;;;52.05;31.60;;;;;;;;;;6289546;22;20018;-96
2022/11/04 01:52:27;;;;;;;64.60;35.63;;;;;;;;;;6316714;22;19999;-96
2022/11/04 01:54:55;;;;;;;58.72;34.35;;;;;;;;;;6288355;22;20536;-96
2022/11/04 01:57:26;;;;;;;59.83;34.25;;;;;;;;;;6287754;22;19999;-96
2022/11/04 01:59:52;;;;;;;53.58;32.63;;;;;;;;;;6289676;22;20098;-96
2022/11/04 02:02:22;;;;;;;54.92;33.78;;;;;;;;;;6287755;22;20429;-96
2022/11/04 02:04:48;;;;;;;55.42;33.72;;;;;;;;;;6289200;22;20004;-96
2022/11/04 02:07:14;;;;;;;49.75;30.35;;;;;;;;;;6287303;22;20010;-96
2022/11/04 02:10:11;;;;;;;53.75;30.50;;;;;;;;;;6290442;22;20018;-96
2022/11/04 02:12:49;;;;;;;65.22;34.67;;;;;;;;;;6290676;22;20016;-96
2022/11/04 02:15:23;;;;;;;60.20;34.40;;;;;;;;;;6286527;22;20007;-96
2022/11/04 02:17:58;;;;;;;54.65;31.27;;;;;;;;;;6287519;22;20006;-96
2022/11/04 02:20:29;;;;;;;64.25;35.45;;;;;;;;;;6285472;22;20090;-96
2022/11/04 02:22:57;;;;;;;63.38;34.10;;;;;;;;;;6288265;22;19999;-96
2022/11/04 02:25:49;;;;;;;64.07;34.00;;;;;;;;;;6288635;22;20014;-96
2022/11/04 02:28:22;;;;;;;62.42;33.25;;;;;;;;;;6287844;22;20008;-96
2022/11/04 02:31:03;;;;;;;63.03;34.40;;;;;;;;;;6288110;22;20034;-95
2022/11/04 02:33:33;;;;;;;58.58;34.03;;;;;;;;;;6287721;22;20011;-96
2022/11/04 02:36:20;;;;;;;67.55;35.75;;;;;;;;;;6287926;22;20007;-96
2022/11/04 02:38:59;;;;;;;65.13;34.05;;;;;;;;;;6290764;22;20007;-96
2022/11/04 02:41:44;;;;;;;62.05;32.83;;;;;;;;;;6287174;22;20046;-96
2022/11/04 02:44:20;;;;;;;65.72;33.53;;;;;;;;;;6286136;22;20003;-95
2022/11/04 02:46:52;;;;;;;62.78;33.53;;;;;;;;;;6285449;22;20030;-96
2022/11/04 02:49:40;;;;;;;63.47;35.70;;;;;;;;;;6285737;22;20086;-96
2022/11/04 02:52:27;;;;;;;58.92;33.72;;;;;;;;;;6284410;22;20003;-96
2022/11/04 02:55:03;;;;;;;61.35;33.67;;;;;;;;;;6311989;22;20003;-96
2022/11/04 02:57:35;;;;;;;58.78;34.72;;;;;;;;;;6283117;22;20420;-96
2022/11/04 03:00:19;;;;;;;;;;;;;;;;;;;;;
2022/11/04 03:02:53;;;;;;;56.13;31.63;;;;;;;;;;6311877;22;20142;-96
2022/11/04 03:05:25;;;;;;;52.00;31.98;;;;;;;;;;6285351;22;20478;-96
2022/11/04 03:07:53;;;;;;;51.50;32.25;;;;;;;;;;6285539;22;20413;-96
2022/11/04 03:10:23;;;;;;;47.65;30.60;;;;;;;;;;6284008;22;20019;-96
2022/11/04 03:12:53;;;;;;;53.58;32.83;;;;;;;;;;6283992;22;20015;-96
2022/11/04 03:15:25;;;;;;;48.60;30.75;;;;;;;;;;6285132;22;20014;-96
2022/11/04 03:18:10;;;;;;;57.90;33.10;;;;;;;;;;6311507;22;20462;-96
2022/11/04 03:20:57;;;;;;;51.25;30.13;;;;;;;;;;6287207;22;20081;-96
2022/11/04 03:23:40;;;;;;;53.95;32.17;;;;;;;;;;6284492;22;19999;-96
2022/11/04 03:26:14;;;;;;;51.53;32.25;;;;;;;;;;6283765;22;20057;-96
2022/11/04 03:28:43;;;;;;;53.63;31.52;;;;;;;;;;6282883;22;20007;-94
2022/11/04 03:31:12;;;;;;;55.50;31.30;;;;;;;;;;6282734;22;20008;-95
2022/11/04 03:33:42;;;;;;;42.92;28.63;;;;;;;;;;6282947;22;20003;-95
2022/11/04 03:36:08;;;;;;;47.40;28.17;;;;;;;;;;6284041;22;20014;-96
2022/11/04 03:38:40;;;;;;;46.72;28.67;;;;;;;;;;6283288;22;20004;-96
2022/11/04 03:41:14;;;;;;;49.95;28.88;;;;;;;;;;6307188;22;20007;-96
2022/11/04 03:43:43;;;;;;;44.22;28.92;;;;;;;;;;6257375;22;20007;-96
2022/11/04 03:46:09;;;;;;;44.92;28.48;;;;;;;;;;6257354;22;20007;-96
2022/11/04 03:48:36;;;;;;;45.72;28.10;;;;;;;;;;6283162;22;20015;-96
2022/11/04 03:51:02;;;;;;;47.13;28.23;;;;;;;;;;6284606;22;20018;-96
2022/11/04 03:53:29;;;;;;;42.15;25.80;;;;;;;;;;6284516;22;20004;-95
2022/11/04 03:56:16;;;;;;;46.20;29.08;;;;;;;;;;6285461;22;20436;-95
2022/11/04 03:59:05;;;;;;;43.40;26.38;;;;;;;;;;6310611;22;20029;-96
2022/11/04 04:01:44;;;;;;;40.05;25.58;;;;;;;;;;6283942;22;20003;-96
2022/11/04 04:04:27;;;;;;;49.65;30.17;;;;;;;;;;6284865;22;20007;-96
2022/11/04 04:07:06;;;;;;;44.70;27.83;;;;;;;;;;6285407;22;20042;-96
2022/11/04 04:09:32;;;;;;;43.33;25.38;;;;;;;;;;6282830;22;20497;-96
2022/11/04 04:12:05;;;;;;;44.17;26.88;;;;;;;;;;6283382;22;20360;-96
2022/11/04 04:14:46;;;;;;;41.00;25.03;;;;;;;;;;6283610;22;20440;-96
2022/11/04 04:17:12;;;;;;;44.72;25.52;;;;;;;;;;6283897;22;20003;-96
2022/11/04 04:19:38;;;;;;;37.35;22.33;;;;;;;;;;6283599;22;20034;-96
2022/11/04 04:22:09;;;;;;;42.33;25.10;;;;;;;;;;6283616;22;19999;-96
2022/11/04 04:27:34;;;;;;;39.92;22.23;;;;;;;;;;6311620;22;20011;-96
2022/11/04 04:30:07;;;;;;;35.55;22.25;;;;;;;;;;6283108;22;20018;-96
2022/11/04 04:32:50;;;;;;;36.72;22.98;;;;;;;;;;6284854;22;20007;-96
2022/11/04 04:46:27;;;;;;;33.97;21.88;;;;;;;;;;6309903;22;20018;-96
2022/11/04 04:48:53;;;;;;;35.63;23.08;;;;;;;;;;6281642;22;20011;-96
2022/11/04 04:51:20;;;;;;;43.80;25.52;;;;;;;;;;6283789;22;20305;-96
2022/11/04 04:53:46;;;;;;;40.15;23.58;;;;;;;;;;6283987;22;20014;-96
2022/11/04 04:56:13;;;;;;;42.35;27.52;;;;;;;;;;6284156;22;20003;-96
2022/11/04 04:58:39;;;;;;;51.53;30.73;;;;;;;;;;6282896;22;20082;-96
2022/11/04 05:01:08;;;;;;;44.17;28.23;;;;;;;;;;6283380;22;20439;-96
2022/11/04 05:03:36;;;;;;;47.95;30.98;;;;;;;;;;6282841;22;20396;-96
2022/11/04 05:06:05;;;;;;;45.70;30.85;;;;;;;;;;6283272;22;19999;-96
2022/11/04 05:08:34;;;;;;;44.30;27.40;;;;;;;;;;6281923;22;20006;-95
2022/11/04 05:11:00;;;;;;;41.90;26.67;;;;;;;;;;6284470;22;20375;-96
2022/11/04 05:13:28;;;;;;;42.58;25.50;;;;;;;;;;6283089;22;20019;-96
2022/11/04 05:15:55;;;;;;;50.10;28.25;;;;;;;;;;6280044;22;20007;-96
2022/11/04 05:18:21;;;;;;;42.78;26.13;;;;;;;;;;6283444;22;20005;-96
2022/11/04 05:23:41;;;;;;;38.50;24.45;;;;;;;;;;6278277;22;20023;-96
2022/11/04 05:26:07;;;;;;;40.65;24.73;;;;;;;;;;6283325;22;20003;-96
2022/11/04 05:28:33;;;;;;;38.53;24.02;;;;;;;;;;6284492;22;20014;-95
2022/11/04 05:31:11;;;;;;;44.08;26.00;;;;;;;;;;6281934;22;20021;-95
2022/11/04 05:33:41;;;;;;;43.83;26.52;;;;;;;;;;6283864;22;20086;-96
2022/11/04 05:36:11;;;;;;;52.78;28.65;;;;;;;;;;6273485;22;20082;-96
2022/11/04 05:38:41;;;;;;;45.35;27.27;;;;;;;;;;6281618;22;20008;-94
2022/11/04 05:41:11;;;;;;;42.65;25.48;;;;;;;;;;6282650;22;20007;-96
2022/11/04 05:43:37;;;;;;;47.75;27.48;;;;;;;;;;6281888;22;20007;-94
2022/11/04 05:53:13;;;;;;;42.30;25.35;;;;;;;;;;6010931;23;20489;-94
2022/11/04 06:07:12;;;;;;;45.22;26.38;;;;;;;;;;6267998;22;20088;-96
2022/11/04 06:09:38;;;;;;;52.53;29.02;;;;;;;;;;6283319;22;20047;-96
2022/11/04 06:12:06;;;;;;;41.42;25.58;;;;;;;;;;6281338;22;20103;-96
2022/11/04 06:14:32;;;;;;;42.50;27.27;;;;;;;;;;6282321;22;20035;-94
2022/11/04 06:16:59;;;;;;;42.80;28.38;;;;;;;;;;6281299;22;20003;-95
2022/11/04 06:27:48;;;;;;;45.30;28.67;;;;;;;;;;6305180;22;20407;-90
2022/11/04 06:30:14;;;;;;;47.70;29.20;;;;;;;;;;6282876;22;20015;-90
2022/11/04 06:32:40;;;;;;;45.70;29.95;;;;;;;;;;6283131;22;20085;-90
2022/11/04 06:35:07;;;;;;;50.17;29.52;;;;;;;;;;6283074;22;20018;-89
2022/11/04 15:28:47;;;;;;;57.95;39.15;;;;;;;;;;6248673;22;20027;-92
2022/11/04 15:31:15;;;;;;;59.05;41.42;;;;;;;;;;6221635;23;20023;-91
2022/11/04 15:33:43;;;;;;;57.90;40.78;;;;;;;;;;6221803;23;20010;-94
2022/11/04 15:36:12;;;;;;;98.25;53.47;;;;;;;;;;6221428;23;20067;-90
2022/11/04 15:38:40;;;;;;;93.22;53.47;;;;;;;;;;6221756;23;20008;-93
2022/11/04 15:43:51;;;;;;;68.50;43.92;;;;;;;;;;6249354;23;20019;-91
2022/11/04 15:46:18;;;;;;;72.00;43.92;;;;;;;;;;6221780;23;20004;-92
2022/11/04 15:48:59;;;;;;;125.40;66.03;;;;;;;;;;6222002;23;20004;-90
2022/11/04 15:51:25;;;;;;;84.97;52.05;;;;;;;;;;6221959;23;20035;-92
2022/11/04 15:53:51;;;;;;;111.43;62.78;;;;;;;;;;6221429;23;20004;-93
2022/11/04 15:56:19;;;;;;;107.93;59.92;;;;;;;;;;6221547;23;20008;-93
2022/11/04 15:58:45;;;;;;;95.57;50.42;;;;;;;;;;6221403;23;20010;-93
2022/11/04 16:01:15;;;;;;;98.20;49.25;;;;;;;;;;6221461;23;20000;-94
2022/11/04 16:03:47;;;;;;;86.40;47.90;;;;;;;;;;6221489;23;20000;-91
2022/11/04 16:06:13;;;;;;;58.80;38.55;;;;;;;;;;6221538;23;20083;-94
2022/11/04 16:08:39;;;;;;;99.88;50.70;;;;;;;;;;6221580;23;20484;-92
2022/11/04 16:11:09;;;;;;;79.88;45.05;;;;;;;;;;6221882;23;20018;-91
2022/11/04 16:13:35;;;;;;;75.38;43.92;;;;;;;;;;6221715;23;20070;-93
2022/11/04 16:16:02;;;;;;;65.35;42.42;;;;;;;;;;6221189;23;20452;-92
2022/11/04 16:18:34;;;;;;;54.20;38.60;;;;;;;;;;6220999;23;20380;-96
2022/11/04 16:21:03;;;;;;;104.22;53.13;;;;;;;;;;6221058;23;20448;-93
2022/11/04 16:23:29;;;;;;;55.30;39.08;;;;;;;;;;6221420;23;20039;-92
2022/11/04 16:26:00;;;;;;;59.13;41.75;;;;;;;;;;6222148;23;20000;-93
2022/11/04 16:34:34;;;;;;;46.28;35.22;;;;;;;;;;6263778;23;20010;-93
2022/11/04 16:37:01;;;;;;;54.47;39.33;;;;;;;;;;6220775;23;20050;-91
2022/11/04 16:39:27;;;;;;;47.45;35.85;;;;;;;;;;6220434;23;20032;-92
2022/11/04 16:41:58;;;;;;;51.00;36.28;;;;;;;;;;6223430;23;20008;-95
2022/11/04 16:45:00;;;;;;;76.43;46.22;;;;;;;;;;6258525;22;20003;-95
2022/11/04 16:48:13;;;;;;;84.40;49.00;;;;;;;;;;6185579;23;20522;-94
2022/11/04 16:50:45;;;;;;;65.60;40.38;;;;;;;;;;6192924;23;20013;-93
2022/11/04 16:53:38;;;;;;;31.27;19.50;;;;;;;;;;6229028;22;20329;-96
2022/11/04 16:59:33;;;;;;;4.38;3.05;;;;;;;;;;6214069;22;20019;-96
2022/11/04 17:01:59;;;;;;;6.72;4.25;;;;;;;;;;6255441;22;20444;-95
2022/11/04 17:04:25;;;;;;;4.15;2.58;;;;;;;;;;6250898;22;20011;-93
2022/11/04 17:12:11;;;;;;;4.10;2.15;;;;;;;;;;6269261;22;20023;-94
2022/11/04 17:14:38;;;;;;;5.07;3.00;;;;;;;;;;6281839;22;20335;-92
2022/11/04 17:17:04;;;;;;;5.47;3.58;;;;;;;;;;6281982;22;20007;-94
2022/11/04 17:19:31;;;;;;;2.80;1.60;;;;;;;;;;6281700;22;20007;-94
2022/11/04 17:21:59;;;;;;;2.30;1.40;;;;;;;;;;6281354;22;20003;-92
2022/11/04 17:24:28;;;;;;;2.53;1.23;;;;;;;;;;6284840;22;20014;-93
2022/11/04 17:30:05;;;;;;;1.92;1.10;;;;;;;;;;6308928;22;20026;-95
2022/11/04 17:32:31;;;;;;;1.88;0.98;;;;;;;;;;6291725;22;20006;-96
2022/11/04 17:34:57;;;;;;;1.83;1.00;;;;;;;;;;6284276;22;20011;-96
2022/11/04 17:37:23;;;;;;;1.75;1.00;;;;;;;;;;6286599;22;20003;-94
2022/11/04 17:39:51;;;;;;;3.75;0.90;;;;;;;;;;6282564;22;20003;-92
2022/11/04 17:45:02;;;;;;;3.72;1.40;;;;;;;;;;6309054;22;20015;-93
2022/11/04 17:47:28;;;;;;;2.05;1.00;;;;;;;;;;6281464;22;20424;-93
2022/11/04 17:49:54;;;;;;;1.73;0.98;;;;;;;;;;6281302;22;20008;-94
2022/11/04 17:52:21;;;;;;;2.63;1.25;;;;;;;;;;6281273;22;20448;-93
2022/11/04 17:54:55;;;;;;;2.28;1.13;;;;;;;;;;6285159;22;20062;-96
2022/11/04 17:57:21;;;;;;;;;;;;;;;;;;6283522;22;20003;-92
2022/11/04 17:59:47;;;;;;;2.15;1.25;;;;;;;;;;6282904;22;19898;-93
2022/11/04 18:02:13;;;;;;;1.90;1.20;;;;;;;;;;6282189;22;20007;-93
2022/11/04 18:04:50;;;;;;;2.30;1.20;;;;;;;;;;6282743;22;20000;-96
2022/11/04 18:07:29;;;;;;;3.45;1.25;;;;;;;;;;6263337;22;20094;-95
2022/11/04 18:09:58;;;;;;;3.03;1.48;;;;;;;;;;6287958;22;20002;-94
2022/11/04 18:13:04;;;;;;;2.47;1.20;;;;;;;;;;6227803;23;20013;-92
2022/11/04 18:15:38;;;;;;;3.60;1.20;;;;;;;;;;6207137;23;20151;-94
2022/11/04 18:18:17;;;;;;;1.67;0.90;;;;;;;;;;6201925;23;20012;-95
2022/11/04 18:20:50;;;;;;;2.35;1.10;;;;;;;;;;6232076;22;20020;-95
2022/11/04 18:29:49;;;;;;;2.80;1.13;;;;;;;;;;6255261;22;20110;-90
2022/11/04 18:35:41;;;;;;;2.03;1.00;;;;;;;;;;6265301;23;20030;-92
2022/11/04 18:38:08;;;;;;;2.22;0.70;;;;;;;;;;6239242;23;20007;-92
2022/11/04 18:40:40;;;;;;;2.45;0.70;;;;;;;;;;6231219;23;20071;-91
2022/11/04 18:43:09;;;;;;;2.40;0.77;;;;;;;;;;6228816;23;20001;-92
2022/11/04 18:45:35;;;;;;;2.20;1.02;;;;;;;;;;6234399;23;20012;-91
2022/11/04 18:48:01;;;;;;;2.47;1.00;;;;;;;;;;6229083;23;20044;-94
2022/11/04 18:53:06;;;;;;;1.40;0.77;;;;;;;;;;6294639;22;19921;-91
2022/11/04 19:01:33;;;;;;;4.40;1.00;;;;;;;;;;6313360;22;20030;-93
2022/11/04 19:04:14;;;;;;;1.38;0.70;;;;;;;;;;6261546;22;20038;-92
2022/11/04 19:15:47;;;;;;;1.60;0.90;;;;;;;;;;6313919;22;20066;-90
2022/11/04 19:23:24;;;;;;;2.33;0.90;;;;;;;;;;6300050;22;20026;-92
2022/11/04 19:31:46;;;;;;;1.38;0.77;;;;;;;;;;6294327;22;20034;-96
2022/11/04 19:34:21;;;;;;;4.07;0.85;;;;;;;;;;6268148;22;20071;-92
2022/11/04 19:36:55;;;;;;;2.20;0.80;;;;;;;;;;6268813;22;20086;-94
2022/11/04 19:39:22;;;;;;;2.72;1.52;;;;;;;;;;6280484;22;20011;-96
2022/11/04 19:44:37;;;;;;;1.73;1.23;;;;;;;;;;6282092;22;20038;-96
2022/11/04 19:53:12;;;;;;;2.03;1.10;;;;;;;;;;6281570;22;20010;-96
2022/11/04 19:55:38;;;;;;;1.83;0.88;;;;;;;;;;6228506;22;20008;-94
2022/11/04 19:58:04;;;;;;;1.60;0.80;;;;;;;;;;6229793;22;20451;-93
2022/11/04 20:17:01;;;;;;;1.65;0.75;;;;;;;;;;6292174;22;20012;-92
2022/11/04 20:19:38;;;;;;;1.80;0.90;;;;;;;;;;6325428;22;19991;-92
2022/11/04 20:22:04;;;;;;;3.63;1.05;;;;;;;;;;6298064;22;20006;-92
2022/11/04 20:24:46;;;;;;;1.95;0.70;;;;;;;;;;6299698;22;20078;-93
2022/11/04 20:27:14;;;;;;;2.03;0.90;;;;;;;;;;6288511;22;19999;-93
2022/11/04 20:32:36;;;;;;;;;;;;;;;;;;6263912;22;20059;-93
2022/11/04 20:35:40;;;;;;;1.70;0.93;;;;;;;;;;6250100;22;19919;-94
2022/11/04 20:41:26;;;;;;;3.08;1.48;;;;;;;;;;6302392;22;20029;-93
2022/11/04 20:47:05;;;;;;;3.40;1.30;;;;;;;;;;6328619;22;20052;-95
2022/11/04 20:49:31;;;;;;;3.05;1.85;;;;;;;;;;6257527;22;20022;-92
2022/11/04 20:51:57;;;;;;;3.10;1.80;;;;;;;;;;6296835;22;19999;-91
2022/11/04 20:54:27;;;;;;;3.42;1.70;;;;;;;;;;6291441;22;20023;-91
2022/11/04 20:57:05;;;;;;;4.43;2.40;;;;;;;;;;6308594;22;20019;-91
2022/11/04 20:59:32;;;;;;;5.95;3.10;;;;;;;;;;6246227;22;20827;-91
2022/11/04 21:02:32;;;;;;;2.33;1.73;;;;;;;;;;6297633;22;20019;-96
2022/11/04 21:20:13;;;;;;;2.83;1.85;;;;;;;;;;6261764;22;20011;-93
2022/11/04 21:34:42;;;;;;;4.88;2.88;;;;;;;;;;6276249;22;20059;31
2022/11/04 21:40:29;;;;;;;3.67;2.35;;;;;;;;;;6315132;22;20073;-91
2022/11/04 21:43:28;;;;;;;4.32;2.85;;;;;;;;;;6263980;22;20087;-90
2022/11/04 21:46:30;;;;;;;3.15;2.28;;;;;;;;;;6266189;22;20011;-94
2022/11/04 21:52:03;;;;;;;3.10;2.10;;;;;;;;;;6167766;23;20029;-91
2022/11/04 21:54:29;;;;;;;4.45;2.67;;;;;;;;;;6262206;22;20083;-93
2022/11/04 21:57:05;;;;;;;4.47;2.60;;;;;;;;;;6264981;22;20003;-94
2022/11/04 22:02:31;;;;;;;6.68;3.03;;;;;;;;;;6295222;22;20091;-94
2022/11/04 22:11:12;;;;;;;5.40;2.33;;;;;;;;;;6296571;22;20027;-92
2022/11/04 22:13:43;;;;;;;4.25;2.40;;;;;;;;;;6267342;22;20239;-92
2022/11/04 22:19:52;;;;;;;4.82;2.60;;;;;;;;;;6260743;22;20030;-93
2022/11/04 22:22:18;;;;;;;3.17;2.13;;;;;;;;;;6296700;22;20014;-93
2022/11/04 22:28:25;;;;;;;5.68;2.78;;;;;;;;;;6322289;22;19997;-93
2022/11/04 22:31:19;;;;;;;7.20;2.40;;;;;;;;;;6294982;22;20137;-93
2022/11/04 22:33:51;;;;;;;;;;;;;;;;;;6299521;22;20031;-93
2022/11/04 22:36:25;;;;;;;3.22;2.40;;;;;;;;;;6295546;22;19899;-93
2022/11/04 22:44:42;;;;;;;3.58;2.20;;;;;;;;;;6290916;22;20072;-92
2022/11/04 22:47:27;;;;;;;2.65;2.10;;;;;;;;;;6261088;22;20003;-92
2022/11/04 22:49:56;;;;;;;3.33;2.47;;;;;;;;;;6272431;22;20012;-92
2022/11/04 22:55:12;;;;;;;3.10;2.40;;;;;;;;;;6320487;22;20397;-92
2022/11/04 23:01:13;;;;;;;2.78;1.95;;;;;;;;;;6261949;23;20000;-94
2022/11/04 23:03:45;;;;;;;3.58;2.47;;;;;;;;;;6250562;23;20134;-92
2022/11/04 23:06:11;;;;;;;4.13;2.30;;;;;;;;;;6247689;22;20020;-92
2022/11/04 23:08:43;;;;;;;4.82;2.60;;;;;;;;;;6287940;22;20003;-92
2022/11/04 23:25:22;;;;;;;3.03;2.00;;;;;;;;;;6322131;22;20018;-93
